Terminal Aerodrome Forecast
Issued by NWS Wakefield, VA

Home | Current Version | Previous Version | Text Only | Print | Product List | Glossary On
Versions: 1 2 3 4 5 6 7 8 9 10 11 12
000
FTUS41 KAKQ 300526
TAFRIC
TAF
KRIC 300526Z 3006/3106 VRB02KT P6SM BKN250
     FM301400 20005KT P6SM BKN150
     FM301800 17007KT P6SM SCT150 BKN250
     FM302300 17004KT P6SM BKN120=

USA.gov is the U.S. government's official web portal to all federal, state and local government web resources and services.